sensor_id;sensor_type;location;lat;lon;timestamp;P1;durP1;ratioP1;P2;durP2;ratioP2
59115;SDS011;53564;51.930;4.640;2022-08-19T00:00:42;10.65;;;4.20;;
59115;SDS011;53564;51.930;4.640;2022-08-19T00:03:08;11.30;;;4.20;;
59115;SDS011;53564;51.930;4.640;2022-08-19T00:05:33;10.50;;;3.90;;
59115;SDS011;53564;51.930;4.640;2022-08-19T00:07:58;12.13;;;4.93;;
59115;SDS011;53564;51.930;4.640;2022-08-19T00:10:24;11.00;;;3.90;;
59115;SDS011;53564;51.930;4.640;2022-08-19T00:12:49;11.07;;;3.90;;
59115;SDS011;53564;51.930;4.640;2022-08-19T00:15:16;11.57;;;4.32;;
59115;SDS011;53564;51.930;4.640;2022-08-19T00:17:44;11.23;;;4.40;;
59115;SDS011;53564;51.930;4.640;2022-08-19T00:20:11;13.68;;;5.03;;
59115;SDS011;53564;51.930;4.640;2022-08-19T00:22:38;12.20;;;4.63;;
59115;SDS011;53564;51.930;4.640;2022-08-19T00:25:05;11.23;;;4.40;;
59115;SDS011;53564;51.930;4.640;2022-08-19T00:27:31;11.32;;;4.45;;
59115;SDS011;53564;51.930;4.640;2022-08-19T00:29:56;10.63;;;3.88;;
59115;SDS011;53564;51.930;4.640;2022-08-19T00:32:23;10.20;;;3.85;;
59115;SDS011;53564;51.930;4.640;2022-08-19T00:34:49;11.70;;;3.97;;
59115;SDS011;53564;51.930;4.640;2022-08-19T00:37:15;11.43;;;4.45;;
59115;SDS011;53564;51.930;4.640;2022-08-19T00:39:40;11.23;;;4.22;;
59115;SDS011;53564;51.930;4.640;2022-08-19T00:42:06;13.75;;;5.90;;
59115;SDS011;53564;51.930;4.640;2022-08-19T00:44:31;13.20;;;5.03;;
59115;SDS011;53564;51.930;4.640;2022-08-19T00:46:57;11.23;;;3.92;;
59115;SDS011;53564;51.930;4.640;2022-08-19T00:49:31;14.50;;;6.20;;
59115;SDS011;53564;51.930;4.640;2022-08-19T00:52:07;10.13;;;4.05;;
59115;SDS011;53564;51.930;4.640;2022-08-19T00:54:37;9.90;;;3.58;;
59115;SDS011;53564;51.930;4.640;2022-08-19T00:57:04;10.40;;;4.00;;
59115;SDS011;53564;51.930;4.640;2022-08-19T00:59:34;10.73;;;3.97;;
59115;SDS011;53564;51.930;4.640;2022-08-19T01:02:02;10.85;;;3.90;;
59115;SDS011;53564;51.930;4.640;2022-08-19T01:04:28;14.70;;;6.15;;
59115;SDS011;53564;51.930;4.640;2022-08-19T01:06:53;12.95;;;5.70;;
59115;SDS011;53564;51.930;4.640;2022-08-19T01:09:20;12.68;;;5.30;;
59115;SDS011;53564;51.930;4.640;2022-08-19T01:11:45;12.50;;;4.75;;
59115;SDS011;53564;51.930;4.640;2022-08-19T01:14:11;14.55;;;5.90;;
59115;SDS011;53564;51.930;4.640;2022-08-19T01:16:37;11.80;;;4.60;;
59115;SDS011;53564;51.930;4.640;2022-08-19T01:19:09;14.63;;;6.85;;
59115;SDS011;53564;51.930;4.640;2022-08-19T01:21:41;10.82;;;4.18;;
59115;SDS011;53564;51.930;4.640;2022-08-19T01:24:15;11.20;;;4.07;;
59115;SDS011;53564;51.930;4.640;2022-08-19T01:26:41;10.35;;;4.05;;
59115;SDS011;53564;51.930;4.640;2022-08-19T01:29:09;10.95;;;4.50;;
59115;SDS011;53564;51.930;4.640;2022-08-19T01:31:35;13.93;;;4.72;;
59115;SDS011;53564;51.930;4.640;2022-08-19T01:34:01;10.20;;;3.72;;
59115;SDS011;53564;51.930;4.640;2022-08-19T01:36:29;12.85;;;5.18;;
59115;SDS011;53564;51.930;4.640;2022-08-19T01:38:57;10.32;;;3.92;;
59115;SDS011;53564;51.930;4.640;2022-08-19T01:41:23;10.93;;;4.22;;
59115;SDS011;53564;51.930;4.640;2022-08-19T01:43:49;10.98;;;4.30;;
59115;SDS011;53564;51.930;4.640;2022-08-19T01:46:15;12.75;;;5.93;;
59115;SDS011;53564;51.930;4.640;2022-08-19T01:48:41;10.80;;;4.13;;
59115;SDS011;53564;51.930;4.640;2022-08-19T01:51:08;13.88;;;6.50;;
59115;SDS011;53564;51.930;4.640;2022-08-19T01:53:34;11.15;;;4.72;;
59115;SDS011;53564;51.930;4.640;2022-08-19T01:56:00;12.60;;;5.25;;
59115;SDS011;53564;51.930;4.640;2022-08-19T01:58:27;12.43;;;4.30;;
59115;SDS011;53564;51.930;4.640;2022-08-19T02:00:57;12.35;;;4.93;;
59115;SDS011;53564;51.930;4.640;2022-08-19T02:03:23;11.75;;;5.25;;
59115;SDS011;53564;51.930;4.640;2022-08-19T02:05:53;12.98;;;5.47;;
59115;SDS011;53564;51.930;4.640;2022-08-19T02:08:20;15.10;;;5.88;;
59115;SDS011;53564;51.930;4.640;2022-08-19T02:10:46;13.88;;;5.32;;
59115;SDS011;53564;51.930;4.640;2022-08-19T02:13:11;11.40;;;5.00;;
59115;SDS011;53564;51.930;4.640;2022-08-19T02:15:38;14.63;;;5.93;;
59115;SDS011;53564;51.930;4.640;2022-08-19T02:18:03;12.90;;;5.15;;
59115;SDS011;53564;51.930;4.640;2022-08-19T02:20:29;11.77;;;5.03;;
59115;SDS011;53564;51.930;4.640;2022-08-19T02:22:54;12.77;;;5.72;;
59115;SDS011;53564;51.930;4.640;2022-08-19T02:25:19;16.48;;;6.80;;
59115;SDS011;53564;51.930;4.640;2022-08-19T02:27:44;13.25;;;5.40;;
59115;SDS011;53564;51.930;4.640;2022-08-19T02:30:12;13.15;;;5.57;;
59115;SDS011;53564;51.930;4.640;2022-08-19T02:32:38;14.88;;;6.57;;
59115;SDS011;53564;51.930;4.640;2022-08-19T02:35:04;14.80;;;7.10;;
59115;SDS011;53564;51.930;4.640;2022-08-19T02:37:29;20.95;;;9.35;;
59115;SDS011;53564;51.930;4.640;2022-08-19T02:42:39;14.95;;;6.80;;
59115;SDS011;53564;51.930;4.640;2022-08-19T02:45:06;15.02;;;6.47;;
59115;SDS011;53564;51.930;4.640;2022-08-19T02:47:32;25.88;;;12.45;;
59115;SDS011;53564;51.930;4.640;2022-08-19T02:50:00;16.98;;;7.43;;
59115;SDS011;53564;51.930;4.640;2022-08-19T02:52:26;16.27;;;7.50;;
59115;SDS011;53564;51.930;4.640;2022-08-19T02:54:52;14.23;;;6.65;;
59115;SDS011;53564;51.930;4.640;2022-08-19T02:57:17;18.40;;;8.10;;
59115;SDS011;53564;51.930;4.640;2022-08-19T02:59:43;18.02;;;8.30;;
59115;SDS011;53564;51.930;4.640;2022-08-19T03:02:08;25.23;;;12.23;;
59115;SDS011;53564;51.930;4.640;2022-08-19T03:04:33;23.15;;;11.52;;
59115;SDS011;53564;51.930;4.640;2022-08-19T03:06:59;18.90;;;8.13;;
59115;SDS011;53564;51.930;4.640;2022-08-19T03:09:24;29.48;;;13.73;;
59115;SDS011;53564;51.930;4.640;2022-08-19T03:11:49;21.60;;;10.07;;
59115;SDS011;53564;51.930;4.640;2022-08-19T03:14:15;21.23;;;10.55;;
59115;SDS011;53564;51.930;4.640;2022-08-19T03:16:42;24.98;;;11.77;;
59115;SDS011;53564;51.930;4.640;2022-08-19T03:19:15;20.50;;;8.57;;
59115;SDS011;53564;51.930;4.640;2022-08-19T03:21:42;21.85;;;10.27;;
59115;SDS011;53564;51.930;4.640;2022-08-19T03:24:09;19.75;;;10.35;;
59115;SDS011;53564;51.930;4.640;2022-08-19T03:26:38;21.20;;;10.48;;
59115;SDS011;53564;51.930;4.640;2022-08-19T03:29:04;28.33;;;14.70;;
59115;SDS011;53564;51.930;4.640;2022-08-19T03:31:30;23.23;;;9.57;;
59115;SDS011;53564;51.930;4.640;2022-08-19T03:33:56;26.20;;;12.32;;
59115;SDS011;53564;51.930;4.640;2022-08-19T03:36:23;19.83;;;9.45;;
59115;SDS011;53564;51.930;4.640;2022-08-19T03:38:51;22.88;;;10.25;;
59115;SDS011;53564;51.930;4.640;2022-08-19T03:41:32;24.48;;;11.15;;
59115;SDS011;53564;51.930;4.640;2022-08-19T03:44:02;28.60;;;14.68;;
59115;SDS011;53564;51.930;4.640;2022-08-19T03:46:30;34.13;;;17.08;;
59115;SDS011;53564;51.930;4.640;2022-08-19T03:48:58;21.65;;;10.48;;
59115;SDS011;53564;51.930;4.640;2022-08-19T03:51:26;27.67;;;13.68;;
59115;SDS011;53564;51.930;4.640;2022-08-19T03:53:54;27.67;;;12.70;;
59115;SDS011;53564;51.930;4.640;2022-08-19T03:56:20;40.10;;;18.83;;
59115;SDS011;53564;51.930;4.640;2022-08-19T03:58:46;23.95;;;11.55;;
59115;SDS011;53564;51.930;4.640;2022-08-19T04:01:14;35.17;;;16.63;;
59115;SDS011;53564;51.930;4.640;2022-08-19T04:03:42;36.38;;;17.27;;
59115;SDS011;53564;51.930;4.640;2022-08-19T04:06:10;43.55;;;21.58;;
59115;SDS011;53564;51.930;4.640;2022-08-19T04:08:40;26.13;;;12.63;;
59115;SDS011;53564;51.930;4.640;2022-08-19T04:11:08;30.45;;;14.45;;
59115;SDS011;53564;51.930;4.640;2022-08-19T04:13:35;49.30;;;21.33;;
59115;SDS011;53564;51.930;4.640;2022-08-19T04:16:00;35.50;;;17.42;;
59115;SDS011;53564;51.930;4.640;2022-08-19T04:18:25;38.35;;;15.80;;
59115;SDS011;53564;51.930;4.640;2022-08-19T04:20:51;36.15;;;17.58;;
59115;SDS011;53564;51.930;4.640;2022-08-19T04:23:16;44.45;;;19.50;;
59115;SDS011;53564;51.930;4.640;2022-08-19T04:25:43;38.70;;;17.95;;
59115;SDS011;53564;51.930;4.640;2022-08-19T04:28:10;43.40;;;19.25;;
59115;SDS011;53564;51.930;4.640;2022-08-19T04:30:37;52.15;;;24.23;;
59115;SDS011;53564;51.930;4.640;2022-08-19T04:33:04;40.00;;;18.52;;
59115;SDS011;53564;51.930;4.640;2022-08-19T04:35:34;52.17;;;23.40;;
59115;SDS011;53564;51.930;4.640;2022-08-19T04:38:01;38.38;;;17.13;;
59115;SDS011;53564;51.930;4.640;2022-08-19T04:40:26;37.85;;;16.70;;
59115;SDS011;53564;51.930;4.640;2022-08-19T04:43:10;41.83;;;18.50;;
59115;SDS011;53564;51.930;4.640;2022-08-19T04:45:37;48.38;;;20.98;;
59115;SDS011;53564;51.930;4.640;2022-08-19T04:48:02;37.88;;;17.00;;
59115;SDS011;53564;51.930;4.640;2022-08-19T04:50:28;42.47;;;18.30;;
59115;SDS011;53564;51.930;4.640;2022-08-19T04:52:53;31.10;;;14.35;;
59115;SDS011;53564;51.930;4.640;2022-08-19T04:55:20;41.97;;;20.27;;
59115;SDS011;53564;51.930;4.640;2022-08-19T04:57:45;31.48;;;14.20;;
59115;SDS011;53564;51.930;4.640;2022-08-19T05:00:11;38.63;;;16.10;;
59115;SDS011;53564;51.930;4.640;2022-08-19T05:02:37;36.35;;;17.45;;
59115;SDS011;53564;51.930;4.640;2022-08-19T05:05:02;41.42;;;17.15;;
59115;SDS011;53564;51.930;4.640;2022-08-19T05:07:28;33.42;;;16.35;;
59115;SDS011;53564;51.930;4.640;2022-08-19T05:09:54;35.63;;;14.20;;
59115;SDS011;53564;51.930;4.640;2022-08-19T05:12:20;37.88;;;17.33;;
59115;SDS011;53564;51.930;4.640;2022-08-19T05:14:45;37.92;;;15.95;;
59115;SDS011;53564;51.930;4.640;2022-08-19T05:17:12;38.38;;;17.63;;
59115;SDS011;53564;51.930;4.640;2022-08-19T05:19:37;42.47;;;17.08;;
59115;SDS011;53564;51.930;4.640;2022-08-19T05:25:06;47.72;;;19.85;;
59115;SDS011;53564;51.930;4.640;2022-08-19T05:27:33;34.25;;;16.48;;
59115;SDS011;53564;51.930;4.640;2022-08-19T05:29:59;36.85;;;15.80;;
59115;SDS011;53564;51.930;4.640;2022-08-19T05:32:24;42.63;;;19.33;;
59115;SDS011;53564;51.930;4.640;2022-08-19T05:34:52;36.00;;;15.85;;
59115;SDS011;53564;51.930;4.640;2022-08-19T05:37:17;44.40;;;19.35;;
59115;SDS011;53564;51.930;4.640;2022-08-19T05:39:42;37.78;;;16.65;;
59115;SDS011;53564;51.930;4.640;2022-08-19T05:42:09;37.88;;;17.70;;
59115;SDS011;53564;51.930;4.640;2022-08-19T05:44:38;38.38;;;16.23;;
59115;SDS011;53564;51.930;4.640;2022-08-19T05:47:08;33.47;;;14.68;;
59115;SDS011;53564;51.930;4.640;2022-08-19T05:49:33;36.03;;;16.75;;
59115;SDS011;53564;51.930;4.640;2022-08-19T05:52:01;40.10;;;16.20;;
59115;SDS011;53564;51.930;4.640;2022-08-19T05:54:29;35.25;;;15.23;;
59115;SDS011;53564;51.930;4.640;2022-08-19T05:56:54;39.42;;;16.77;;
59115;SDS011;53564;51.930;4.640;2022-08-19T05:59:20;37.45;;;17.08;;
59115;SDS011;53564;51.930;4.640;2022-08-19T06:01:46;33.08;;;15.95;;
59115;SDS011;53564;51.930;4.640;2022-08-19T06:04:15;35.42;;;15.38;;
59115;SDS011;53564;51.930;4.640;2022-08-19T06:06:43;32.20;;;15.02;;
59115;SDS011;53564;51.930;4.640;2022-08-19T06:09:09;38.95;;;17.77;;
59115;SDS011;53564;51.930;4.640;2022-08-19T06:11:37;33.85;;;15.13;;
59115;SDS011;53564;51.930;4.640;2022-08-19T06:14:06;33.15;;;14.35;;
59115;SDS011;53564;51.930;4.640;2022-08-19T06:16:34;34.28;;;15.63;;
59115;SDS011;53564;51.930;4.640;2022-08-19T06:19:04;40.13;;;14.77;;
59115;SDS011;53564;51.930;4.640;2022-08-19T06:21:32;34.20;;;15.60;;
59115;SDS011;53564;51.930;4.640;2022-08-19T06:23:58;28.88;;;13.38;;
59115;SDS011;53564;51.930;4.640;2022-08-19T06:26:24;31.65;;;14.40;;
59115;SDS011;53564;51.930;4.640;2022-08-19T06:28:50;31.80;;;15.43;;
59115;SDS011;53564;51.930;4.640;2022-08-19T06:31:16;36.05;;;17.33;;
59115;SDS011;53564;51.930;4.640;2022-08-19T06:33:43;30.33;;;15.80;;
59115;SDS011;53564;51.930;4.640;2022-08-19T06:36:23;33.28;;;14.27;;
59115;SDS011;53564;51.930;4.640;2022-08-19T06:38:56;30.95;;;14.43;;
59115;SDS011;53564;51.930;4.640;2022-08-19T06:41:23;30.13;;;14.85;;
59115;SDS011;53564;51.930;4.640;2022-08-19T06:43:52;34.42;;;14.82;;
59115;SDS011;53564;51.930;4.640;2022-08-19T06:46:18;36.03;;;16.05;;
59115;SDS011;53564;51.930;4.640;2022-08-19T06:48:44;31.48;;;14.57;;
59115;SDS011;53564;51.930;4.640;2022-08-19T06:51:10;32.17;;;14.93;;
59115;SDS011;53564;51.930;4.640;2022-08-19T06:53:36;29.45;;;13.32;;
59115;SDS011;53564;51.930;4.640;2022-08-19T06:56:01;29.42;;;13.60;;
59115;SDS011;53564;51.930;4.640;2022-08-19T06:58:30;29.98;;;15.38;;
59115;SDS011;53564;51.930;4.640;2022-08-19T07:00:57;27.85;;;13.82;;
59115;SDS011;53564;51.930;4.640;2022-08-19T07:03:26;32.33;;;16.02;;
59115;SDS011;53564;51.930;4.640;2022-08-19T07:05:53;30.38;;;15.38;;
59115;SDS011;53564;51.930;4.640;2022-08-19T07:08:19;36.97;;;16.80;;
59115;SDS011;53564;51.930;4.640;2022-08-19T07:10:44;38.63;;;16.15;;
59115;SDS011;53564;51.930;4.640;2022-08-19T07:13:10;34.83;;;16.60;;
59115;SDS011;53564;51.930;4.640;2022-08-19T07:15:36;44.45;;;16.95;;
59115;SDS011;53564;51.930;4.640;2022-08-19T07:18:02;30.10;;;14.77;;
59115;SDS011;53564;51.930;4.640;2022-08-19T07:20:28;32.83;;;15.93;;
59115;SDS011;53564;51.930;4.640;2022-08-19T07:22:53;35.80;;;16.52;;
59115;SDS011;53564;51.930;4.640;2022-08-19T07:25:18;34.75;;;16.25;;
59115;SDS011;53564;51.930;4.640;2022-08-19T07:27:45;29.70;;;14.55;;
59115;SDS011;53564;51.930;4.640;2022-08-19T07:30:16;35.75;;;18.38;;
59115;SDS011;53564;51.930;4.640;2022-08-19T07:32:42;36.85;;;18.35;;
59115;SDS011;53564;51.930;4.640;2022-08-19T07:35:08;32.75;;;15.10;;
59115;SDS011;53564;51.930;4.640;2022-08-19T07:37:46;31.48;;;15.77;;
59115;SDS011;53564;51.930;4.640;2022-08-19T07:40:11;33.33;;;15.77;;
59115;SDS011;53564;51.930;4.640;2022-08-19T07:42:37;33.05;;;15.15;;
59115;SDS011;53564;51.930;4.640;2022-08-19T07:45:02;40.80;;;17.15;;
59115;SDS011;53564;51.930;4.640;2022-08-19T07:47:29;31.73;;;15.40;;
59115;SDS011;53564;51.930;4.640;2022-08-19T07:49:55;33.92;;;16.02;;
59115;SDS011;53564;51.930;4.640;2022-08-19T07:52:20;32.03;;;14.95;;
59115;SDS011;53564;51.930;4.640;2022-08-19T07:54:46;34.47;;;16.17;;
59115;SDS011;53564;51.930;4.640;2022-08-19T07:57:12;33.10;;;15.63;;
59115;SDS011;53564;51.930;4.640;2022-08-19T07:59:37;31.80;;;15.77;;
59115;SDS011;53564;51.930;4.640;2022-08-19T08:02:03;27.67;;;14.57;;
59115;SDS011;53564;51.930;4.640;2022-08-19T08:04:30;37.00;;;17.13;;
59115;SDS011;53564;51.930;4.640;2022-08-19T08:07:15;35.67;;;15.95;;
59115;SDS011;53564;51.930;4.640;2022-08-19T08:09:59;24.05;;;13.07;;
59115;SDS011;53564;51.930;4.640;2022-08-19T08:12:28;27.25;;;13.70;;
59115;SDS011;53564;51.930;4.640;2022-08-19T08:14:57;30.05;;;15.75;;
59115;SDS011;53564;51.930;4.640;2022-08-19T08:17:27;24.15;;;12.20;;
59115;SDS011;53564;51.930;4.640;2022-08-19T08:19:53;27.15;;;13.70;;
59115;SDS011;53564;51.930;4.640;2022-08-19T08:22:20;27.30;;;14.63;;
59115;SDS011;53564;51.930;4.640;2022-08-19T08:27:35;22.52;;;11.70;;
59115;SDS011;53564;51.930;4.640;2022-08-19T08:30:02;28.05;;;13.55;;
59115;SDS011;53564;51.930;4.640;2022-08-19T08:32:29;23.52;;;10.95;;
59115;SDS011;53564;51.930;4.640;2022-08-19T08:34:55;27.20;;;13.50;;
59115;SDS011;53564;51.930;4.640;2022-08-19T08:37:23;29.35;;;13.00;;
59115;SDS011;53564;51.930;4.640;2022-08-19T08:39:49;29.25;;;14.90;;
59115;SDS011;53564;51.930;4.640;2022-08-19T08:42:22;27.58;;;12.95;;
59115;SDS011;53564;51.930;4.640;2022-08-19T08:49:55;28.65;;;13.10;;
59115;SDS011;53564;51.930;4.640;2022-08-19T08:52:25;22.27;;;12.35;;
59115;SDS011;53564;51.930;4.640;2022-08-19T08:54:54;25.85;;;13.50;;
59115;SDS011;53564;51.930;4.640;2022-08-19T08:59:58;27.60;;;12.50;;
59115;SDS011;53564;51.930;4.640;2022-08-19T09:02:28;24.95;;;13.32;;
59115;SDS011;53564;51.930;4.640;2022-08-19T09:04:54;27.42;;;13.23;;
59115;SDS011;53564;51.930;4.640;2022-08-19T09:10:29;30.48;;;12.80;;
59115;SDS011;53564;51.930;4.640;2022-08-19T09:16:03;28.20;;;13.10;;
59115;SDS011;53564;51.930;4.640;2022-08-19T09:21:11;23.02;;;13.18;;
59115;SDS011;53564;51.930;4.640;2022-08-19T09:23:37;22.65;;;12.32;;
59115;SDS011;53564;51.930;4.640;2022-08-19T09:26:07;24.63;;;11.65;;
59115;SDS011;53564;51.930;4.640;2022-08-19T09:28:38;23.92;;;12.32;;
59115;SDS011;53564;51.930;4.640;2022-08-19T09:31:07;24.17;;;12.05;;
59115;SDS011;53564;51.930;4.640;2022-08-19T09:33:32;23.38;;;12.70;;
59115;SDS011;53564;51.930;4.640;2022-08-19T09:36:02;22.10;;;12.32;;
59115;SDS011;53564;51.930;4.640;2022-08-19T09:38:28;26.80;;;13.23;;
59115;SDS011;53564;51.930;4.640;2022-08-19T09:40:53;20.08;;;10.40;;
59115;SDS011;53564;51.930;4.640;2022-08-19T09:43:19;24.17;;;11.45;;
59115;SDS011;53564;51.930;4.640;2022-08-19T09:45:44;23.40;;;9.82;;
59115;SDS011;53564;51.930;4.640;2022-08-19T09:48:09;23.88;;;10.40;;
59115;SDS011;53564;51.930;4.640;2022-08-19T09:50:35;22.27;;;8.93;;
59115;SDS011;53564;51.930;4.640;2022-08-19T09:53:03;18.08;;;8.50;;
59115;SDS011;53564;51.930;4.640;2022-08-19T09:55:30;18.58;;;8.30;;
59115;SDS011;53564;51.930;4.640;2022-08-19T09:57:55;18.23;;;7.78;;
59115;SDS011;53564;51.930;4.640;2022-08-19T10:00:20;22.33;;;8.93;;
59115;SDS011;53564;51.930;4.640;2022-08-19T10:02:46;23.98;;;8.70;;
59115;SDS011;53564;51.930;4.640;2022-08-19T10:05:11;19.90;;;8.48;;
59115;SDS011;53564;51.930;4.640;2022-08-19T10:07:55;17.95;;;7.97;;
59115;SDS011;53564;51.930;4.640;2022-08-19T10:10:20;18.75;;;7.82;;
59115;SDS011;53564;51.930;4.640;2022-08-19T10:12:45;20.15;;;8.95;;
59115;SDS011;53564;51.930;4.640;2022-08-19T10:15:12;17.80;;;8.15;;
59115;SDS011;53564;51.930;4.640;2022-08-19T10:17:38;19.52;;;7.40;;
59115;SDS011;53564;51.930;4.640;2022-08-19T10:20:03;14.50;;;6.10;;
59115;SDS011;53564;51.930;4.640;2022-08-19T10:22:29;16.67;;;6.00;;
59115;SDS011;53564;51.930;4.640;2022-08-19T10:24:54;17.73;;;6.80;;
59115;SDS011;53564;51.930;4.640;2022-08-19T10:27:20;17.88;;;6.57;;
59115;SDS011;53564;51.930;4.640;2022-08-19T10:29:45;14.88;;;5.88;;
59115;SDS011;53564;51.930;4.640;2022-08-19T10:32:12;21.02;;;6.10;;
59115;SDS011;53564;51.930;4.640;2022-08-19T10:34:37;15.20;;;6.47;;
59115;SDS011;53564;51.930;4.640;2022-08-19T10:37:03;16.70;;;5.93;;
59115;SDS011;53564;51.930;4.640;2022-08-19T10:39:31;16.25;;;5.15;;
59115;SDS011;53564;51.930;4.640;2022-08-19T10:41:57;15.27;;;5.35;;
59115;SDS011;53564;51.930;4.640;2022-08-19T10:44:23;17.23;;;5.75;;
59115;SDS011;53564;51.930;4.640;2022-08-19T10:46:49;14.57;;;5.20;;
59115;SDS011;53564;51.930;4.640;2022-08-19T10:49:15;15.27;;;5.45;;
59115;SDS011;53564;51.930;4.640;2022-08-19T10:51:40;14.68;;;6.15;;
59115;SDS011;53564;51.930;4.640;2022-08-19T10:54:25;21.75;;;5.47;;
59115;SDS011;53564;51.930;4.640;2022-08-19T10:57:11;16.70;;;5.05;;
59115;SDS011;53564;51.930;4.640;2022-08-19T10:59:36;12.67;;;4.87;;
59115;SDS011;53564;51.930;4.640;2022-08-19T11:02:03;13.57;;;5.05;;
59115;SDS011;53564;51.930;4.640;2022-08-19T11:04:30;14.27;;;5.20;;
59115;SDS011;53564;51.930;4.640;2022-08-19T11:06:56;16.65;;;5.35;;
59115;SDS011;53564;51.930;4.640;2022-08-19T11:09:23;12.98;;;4.97;;
59115;SDS011;53564;51.930;4.640;2022-08-19T11:11:50;15.73;;;4.85;;
59115;SDS011;53564;51.930;4.640;2022-08-19T11:14:16;13.65;;;4.30;;
59115;SDS011;53564;51.930;4.640;2022-08-19T11:16:45;12.63;;;3.90;;
59115;SDS011;53564;51.930;4.640;2022-08-19T11:19:12;13.52;;;4.30;;
59115;SDS011;53564;51.930;4.640;2022-08-19T11:21:40;12.23;;;3.58;;
59115;SDS011;53564;51.930;4.640;2022-08-19T11:24:08;10.43;;;3.40;;
59115;SDS011;53564;51.930;4.640;2022-08-19T11:26:36;12.93;;;3.80;;
59115;SDS011;53564;51.930;4.640;2022-08-19T11:29:02;10.85;;;3.72;;
59115;SDS011;53564;51.930;4.640;2022-08-19T11:31:30;11.68;;;3.40;;
59115;SDS011;53564;51.930;4.640;2022-08-19T11:34:00;13.73;;;3.95;;
59115;SDS011;53564;51.930;4.640;2022-08-19T11:36:28;13.00;;;3.22;;
59115;SDS011;53564;51.930;4.640;2022-08-19T11:38:54;14.10;;;3.47;;
59115;SDS011;53564;51.930;4.640;2022-08-19T11:41:20;11.07;;;3.25;;
59115;SDS011;53564;51.930;4.640;2022-08-19T11:43:48;11.38;;;3.55;;
59115;SDS011;53564;51.930;4.640;2022-08-19T11:46:15;10.05;;;3.50;;
59115;SDS011;53564;51.930;4.640;2022-08-19T11:48:41;9.27;;;3.20;;
59115;SDS011;53564;51.930;4.640;2022-08-19T11:51:08;10.40;;;3.30;;
59115;SDS011;53564;51.930;4.640;2022-08-19T11:53:42;16.92;;;3.40;;
59115;SDS011;53564;51.930;4.640;2022-08-19T11:56:07;9.73;;;2.88;;
59115;SDS011;53564;51.930;4.640;2022-08-19T11:58:34;9.90;;;3.33;;
59115;SDS011;53564;51.930;4.640;2022-08-19T12:01:00;12.60;;;3.40;;
59115;SDS011;53564;51.930;4.640;2022-08-19T12:03:26;11.00;;;3.38;;
59115;SDS011;53564;51.930;4.640;2022-08-19T12:05:52;12.63;;;3.55;;
59115;SDS011;53564;51.930;4.640;2022-08-19T12:08:18;11.60;;;4.10;;
59115;SDS011;53564;51.930;4.640;2022-08-19T12:10:44;11.43;;;3.78;;
59115;SDS011;53564;51.930;4.640;2022-08-19T12:13:11;13.95;;;4.28;;
59115;SDS011;53564;51.930;4.640;2022-08-19T12:15:40;10.82;;;3.28;;
59115;SDS011;53564;51.930;4.640;2022-08-19T12:18:06;14.18;;;3.50;;
59115;SDS011;53564;51.930;4.640;2022-08-19T12:20:37;12.88;;;3.38;;
59115;SDS011;53564;51.930;4.640;2022-08-19T12:23:04;11.88;;;4.10;;
59115;SDS011;53564;51.930;4.640;2022-08-19T12:25:31;13.27;;;4.25;;
59115;SDS011;53564;51.930;4.640;2022-08-19T12:27:56;10.07;;;3.50;;
59115;SDS011;53564;51.930;4.640;2022-08-19T12:30:22;10.63;;;3.53;;
59115;SDS011;53564;51.930;4.640;2022-08-19T12:32:47;12.45;;;3.60;;
59115;SDS011;53564;51.930;4.640;2022-08-19T12:35:13;10.18;;;3.63;;
59115;SDS011;53564;51.930;4.640;2022-08-19T12:37:39;11.55;;;3.63;;
59115;SDS011;53564;51.930;4.640;2022-08-19T12:40:09;13.77;;;3.28;;
59115;SDS011;53564;51.930;4.640;2022-08-19T12:42:36;9.63;;;3.05;;
59115;SDS011;53564;51.930;4.640;2022-08-19T12:45:02;7.50;;;2.95;;
59115;SDS011;53564;51.930;4.640;2022-08-19T12:47:28;10.55;;;3.78;;
59115;SDS011;53564;51.930;4.640;2022-08-19T12:49:53;10.10;;;3.60;;
59115;SDS011;53564;51.930;4.640;2022-08-19T12:52:19;13.30;;;5.03;;
59115;SDS011;53564;51.930;4.640;2022-08-19T12:54:46;13.85;;;5.78;;
59115;SDS011;53564;51.930;4.640;2022-08-19T12:57:11;12.93;;;4.63;;
59115;SDS011;53564;51.930;4.640;2022-08-19T12:59:37;15.63;;;5.78;;
59115;SDS011;53564;51.930;4.640;2022-08-19T13:02:04;19.90;;;6.25;;
59115;SDS011;53564;51.930;4.640;2022-08-19T13:04:31;14.98;;;5.78;;
59115;SDS011;53564;51.930;4.640;2022-08-19T13:06:57;14.73;;;6.25;;
59115;SDS011;53564;51.930;4.640;2022-08-19T13:09:23;15.43;;;5.20;;
59115;SDS011;53564;51.930;4.640;2022-08-19T13:11:48;11.93;;;4.22;;
59115;SDS011;53564;51.930;4.640;2022-08-19T13:14:13;15.38;;;5.18;;
59115;SDS011;53564;51.930;4.640;2022-08-19T13:16:38;14.15;;;5.03;;
59115;SDS011;53564;51.930;4.640;2022-08-19T13:19:05;13.60;;;5.10;;
59115;SDS011;53564;51.930;4.640;2022-08-19T13:21:30;13.77;;;5.55;;
59115;SDS011;53564;51.930;4.640;2022-08-19T13:23:56;14.32;;;5.53;;
59115;SDS011;53564;51.930;4.640;2022-08-19T13:26:22;14.98;;;6.25;;
59115;SDS011;53564;51.930;4.640;2022-08-19T13:28:48;19.25;;;7.45;;
59115;SDS011;53564;51.930;4.640;2022-08-19T13:31:33;14.68;;;5.88;;
59115;SDS011;53564;51.930;4.640;2022-08-19T13:34:25;14.23;;;5.93;;
59115;SDS011;53564;51.930;4.640;2022-08-19T13:36:58;13.98;;;5.45;;
59115;SDS011;53564;51.930;4.640;2022-08-19T13:39:27;13.95;;;5.85;;
59115;SDS011;53564;51.930;4.640;2022-08-19T13:41:53;15.13;;;6.38;;
59115;SDS011;53564;51.930;4.640;2022-08-19T13:44:18;15.40;;;5.90;;
59115;SDS011;53564;51.930;4.640;2022-08-19T13:46:44;14.27;;;6.07;;
59115;SDS011;53564;51.930;4.640;2022-08-19T13:49:11;15.60;;;7.07;;
59115;SDS011;53564;51.930;4.640;2022-08-19T13:51:38;14.75;;;6.05;;
59115;SDS011;53564;51.930;4.640;2022-08-19T13:54:07;17.83;;;6.57;;
59115;SDS011;53564;51.930;4.640;2022-08-19T13:56:34;14.48;;;4.65;;
59115;SDS011;53564;51.930;4.640;2022-08-19T13:59:04;15.25;;;6.05;;
59115;SDS011;53564;51.930;4.640;2022-08-19T14:01:29;14.85;;;6.15;;
59115;SDS011;53564;51.930;4.640;2022-08-19T14:03:55;14.77;;;6.00;;
59115;SDS011;53564;51.930;4.640;2022-08-19T14:06:20;15.85;;;6.35;;
59115;SDS011;53564;51.930;4.640;2022-08-19T14:08:47;19.45;;;6.63;;
59115;SDS011;53564;51.930;4.640;2022-08-19T14:11:12;22.88;;;8.10;;
59115;SDS011;53564;51.930;4.640;2022-08-19T14:13:38;15.45;;;5.78;;
59115;SDS011;53564;51.930;4.640;2022-08-19T14:16:07;15.68;;;5.85;;
59115;SDS011;53564;51.930;4.640;2022-08-19T14:18:36;14.20;;;5.80;;
59115;SDS011;53564;51.930;4.640;2022-08-19T14:21:03;15.85;;;6.68;;
59115;SDS011;53564;51.930;4.640;2022-08-19T14:23:29;16.75;;;5.75;;
59115;SDS011;53564;51.930;4.640;2022-08-19T14:26:02;15.90;;;6.55;;
59115;SDS011;53564;51.930;4.640;2022-08-19T14:28:29;19.50;;;6.85;;
59115;SDS011;53564;51.930;4.640;2022-08-19T14:30:55;14.18;;;5.95;;
59115;SDS011;53564;51.930;4.640;2022-08-19T14:33:20;16.40;;;4.45;;
59115;SDS011;53564;51.930;4.640;2022-08-19T14:35:45;10.30;;;3.40;;
59115;SDS011;53564;51.930;4.640;2022-08-19T14:38:14;10.15;;;3.47;;
59115;SDS011;53564;51.930;4.640;2022-08-19T14:40:41;9.63;;;2.97;;
59115;SDS011;53564;51.930;4.640;2022-08-19T14:43:06;12.27;;;3.30;;
59115;SDS011;53564;51.930;4.640;2022-08-19T14:45:34;9.73;;;3.03;;
59115;SDS011;53564;51.930;4.640;2022-08-19T14:48:00;10.10;;;3.25;;
59115;SDS011;53564;51.930;4.640;2022-08-19T14:50:26;9.48;;;3.00;;
59115;SDS011;53564;51.930;4.640;2022-08-19T14:52:57;9.20;;;2.80;;